sensor_id;sensor_type;location;lat;lon;timestamp;pressure;altitude;pressure_sealevel;temperature;humidity
21828;BME280;11076;47.942;11.804;2023-03-14T00:03:47;92943.41;;;8.23;91.81
21828;BME280;11076;47.942;11.804;2023-03-14T00:08:49;92939.84;;;8.17;91.77
21828;BME280;11076;47.942;11.804;2023-03-14T00:13:53;92885.00;;;8.16;92.83
21828;BME280;11076;47.942;11.804;2023-03-14T00:18:58;92872.28;;;8.19;93.06
21828;BME280;11076;47.942;11.804;2023-03-14T00:24:00;92904.91;;;7.97;93.06
21828;BME280;11076;47.942;11.804;2023-03-14T00:29:02;92909.81;;;8.05;93.83
21828;BME280;11076;47.942;11.804;2023-03-14T00:34:05;92928.13;;;8.30;94.63
21828;BME280;11076;47.942;11.804;2023-03-14T00:39:07;92878.75;;;8.56;96.75
21828;BME280;11076;47.942;11.804;2023-03-14T00:44:09;92886.19;;;8.54;95.76
21828;BME280;11076;47.942;11.804;2023-03-14T00:49:12;92889.56;;;8.67;95.95
21828;BME280;11076;47.942;11.804;2023-03-14T00:54:14;92897.16;;;8.75;95.48
21828;BME280;11076;47.942;11.804;2023-03-14T00:59:17;92911.59;;;8.79;95.63
21828;BME280;11076;47.942;11.804;2023-03-14T01:04:19;92920.31;;;8.91;96.00
21828;BME280;11076;47.942;11.804;2023-03-14T01:09:22;92903.09;;;8.99;95.56
21828;BME280;11076;47.942;11.804;2023-03-14T01:14:24;92910.94;;;9.06;95.64
21828;BME280;11076;47.942;11.804;2023-03-14T01:19:28;92886.69;;;9.07;95.67
21828;BME280;11076;47.942;11.804;2023-03-14T01:24:30;92892.41;;;9.16;95.96
21828;BME280;11076;47.942;11.804;2023-03-14T01:29:33;92879.56;;;9.13;96.39
21828;BME280;11076;47.942;11.804;2023-03-14T01:34:35;92880.53;;;9.07;97.66
21828;BME280;11076;47.942;11.804;2023-03-14T01:39:38;92878.31;;;8.99;99.09
21828;BME280;11076;47.942;11.804;2023-03-14T01:44:54;92889.38;;;8.90;100.00
21828;BME280;11076;47.942;11.804;2023-03-14T01:50:04;92902.72;;;8.90;100.00
21828;BME280;11076;47.942;11.804;2023-03-14T01:55:17;92903.94;;;8.83;100.00
21828;BME280;11076;47.942;11.804;2023-03-14T02:00:22;92893.91;;;8.73;100.00
21828;BME280;11076;47.942;11.804;2023-03-14T02:05:28;92883.44;;;8.66;100.00
21828;BME280;11076;47.942;11.804;2023-03-14T02:10:51;92895.06;;;8.60;100.00
21828;BME280;11076;47.942;11.804;2023-03-14T02:16:08;92902.63;;;8.51;100.00
21828;BME280;11076;47.942;11.804;2023-03-14T02:21:53;92912.25;;;8.52;100.00
21828;BME280;11076;47.942;11.804;2023-03-14T02:27:14;92910.06;;;8.49;100.00
21828;BME280;11076;47.942;11.804;2023-03-14T02:32:22;92917.81;;;8.51;100.00
21828;BME280;11076;47.942;11.804;2023-03-14T02:37:40;92923.78;;;8.41;100.00
21828;BME280;11076;47.942;11.804;2023-03-14T02:42:43;92919.22;;;8.25;100.00
21828;BME280;11076;47.942;11.804;2023-03-14T02:47:54;92915.31;;;8.15;100.00
21828;BME280;11076;47.942;11.804;2023-03-14T02:52:58;92896.28;;;8.07;100.00
21828;BME280;11076;47.942;11.804;2023-03-14T02:58:01;92883.84;;;7.95;100.00
21828;BME280;11076;47.942;11.804;2023-03-14T03:03:04;92867.00;;;7.90;100.00
21828;BME280;11076;47.942;11.804;2023-03-14T03:08:08;92855.19;;;7.86;100.00
21828;BME280;11076;47.942;11.804;2023-03-14T03:13:12;92875.69;;;7.85;100.00
21828;BME280;11076;47.942;11.804;2023-03-14T03:18:16;92890.84;;;7.85;100.00
21828;BME280;11076;47.942;11.804;2023-03-14T03:23:19;92871.53;;;7.77;100.00
21828;BME280;11076;47.942;11.804;2023-03-14T03:28:21;92836.91;;;7.72;100.00
21828;BME280;11076;47.942;11.804;2023-03-14T03:33:25;92803.00;;;7.68;100.00
21828;BME280;11076;47.942;11.804;2023-03-14T03:38:28;92788.84;;;7.62;100.00
21828;BME280;11076;47.942;11.804;2023-03-14T03:43:32;92792.53;;;7.61;100.00
21828;BME280;11076;47.942;11.804;2023-03-14T03:48:37;92783.19;;;7.59;100.00
21828;BME280;11076;47.942;11.804;2023-03-14T03:53:41;92804.28;;;7.48;100.00
21828;BME280;11076;47.942;11.804;2023-03-14T03:58:46;92829.06;;;7.37;100.00
21828;BME280;11076;47.942;11.804;2023-03-14T04:03:49;92828.16;;;7.31;100.00
21828;BME280;11076;47.942;11.804;2023-03-14T04:08:53;92830.63;;;7.21;100.00
21828;BME280;11076;47.942;11.804;2023-03-14T04:14:11;92818.84;;;7.17;100.00
21828;BME280;11076;47.942;11.804;2023-03-14T04:19:14;92810.75;;;7.12;100.00
21828;BME280;11076;47.942;11.804;2023-03-14T04:24:16;92813.66;;;7.10;100.00
21828;BME280;11076;47.942;11.804;2023-03-14T04:29:22;92786.28;;;7.10;100.00
21828;BME280;11076;47.942;11.804;2023-03-14T04:34:25;92775.97;;;7.13;100.00
21828;BME280;11076;47.942;11.804;2023-03-14T04:39:30;92760.84;;;7.14;100.00
21828;BME280;11076;47.942;11.804;2023-03-14T04:44:44;92771.47;;;7.14;100.00
21828;BME280;11076;47.942;11.804;2023-03-14T04:49:48;92777.13;;;7.17;100.00
21828;BME280;11076;47.942;11.804;2023-03-14T04:54:51;92769.06;;;7.12;100.00
21828;BME280;11076;47.942;11.804;2023-03-14T04:59:55;92769.53;;;7.09;100.00
21828;BME280;11076;47.942;11.804;2023-03-14T05:05:16;92745.75;;;7.03;100.00
21828;BME280;11076;47.942;11.804;2023-03-14T05:10:37;92744.13;;;7.02;100.00
21828;BME280;11076;47.942;11.804;2023-03-14T05:15:52;92727.63;;;7.00;100.00
21828;BME280;11076;47.942;11.804;2023-03-14T05:21:15;92713.31;;;7.01;100.00
21828;BME280;11076;47.942;11.804;2023-03-14T05:26:43;92699.53;;;7.04;100.00
21828;BME280;11076;47.942;11.804;2023-03-14T05:32:01;92705.56;;;6.99;100.00
21828;BME280;11076;47.942;11.804;2023-03-14T05:37:13;92704.66;;;6.93;100.00
21828;BME280;11076;47.942;11.804;2023-03-14T05:42:44;92709.41;;;6.91;100.00
21828;BME280;11076;47.942;11.804;2023-03-14T05:48:26;92701.78;;;6.95;100.00
21828;BME280;11076;47.942;11.804;2023-03-14T05:53:43;92702.34;;;6.97;100.00
21828;BME280;11076;47.942;11.804;2023-03-14T05:59:08;92692.13;;;7.06;100.00
21828;BME280;11076;47.942;11.804;2023-03-14T06:04:21;92694.97;;;7.16;100.00
21828;BME280;11076;47.942;11.804;2023-03-14T06:09:28;92698.19;;;7.18;100.00
21828;BME280;11076;47.942;11.804;2023-03-14T06:14:34;92703.50;;;7.18;100.00
21828;BME280;11076;47.942;11.804;2023-03-14T06:19:36;92690.47;;;7.16;100.00
21828;BME280;11076;47.942;11.804;2023-03-14T06:24:39;92699.09;;;7.24;100.00
21828;BME280;11076;47.942;11.804;2023-03-14T06:29:41;92698.84;;;7.25;100.00
21828;BME280;11076;47.942;11.804;2023-03-14T06:34:44;92690.16;;;7.30;100.00
21828;BME280;11076;47.942;11.804;2023-03-14T06:39:46;92668.25;;;7.40;100.00
21828;BME280;11076;47.942;11.804;2023-03-14T06:44:59;92678.09;;;7.39;100.00
21828;BME280;11076;47.942;11.804;2023-03-14T06:50:01;92694.69;;;7.46;100.00
21828;BME280;11076;47.942;11.804;2023-03-14T06:55:05;92698.56;;;7.39;100.00
21828;BME280;11076;47.942;11.804;2023-03-14T07:00:09;92693.88;;;7.46;100.00
21828;BME280;11076;47.942;11.804;2023-03-14T07:05:12;92704.72;;;7.56;100.00
21828;BME280;11076;47.942;11.804;2023-03-14T07:10:15;92694.53;;;7.53;100.00
21828;BME280;11076;47.942;11.804;2023-03-14T07:15:17;92689.94;;;7.48;100.00
21828;BME280;11076;47.942;11.804;2023-03-14T07:20:25;92697.44;;;7.51;100.00
21828;BME280;11076;47.942;11.804;2023-03-14T07:25:28;92688.75;;;7.56;100.00
21828;BME280;11076;47.942;11.804;2023-03-14T07:36:09;92687.13;;;7.72;100.00
21828;BME280;11076;47.942;11.804;2023-03-14T07:41:14;92690.03;;;7.70;100.00
21828;BME280;11076;47.942;11.804;2023-03-14T07:46:37;92697.44;;;7.68;100.00
21828;BME280;11076;47.942;11.804;2023-03-14T07:51:40;92694.28;;;7.88;100.00
21828;BME280;11076;47.942;11.804;2023-03-14T07:56:42;92695.78;;;8.18;100.00
21828;BME280;11076;47.942;11.804;2023-03-14T08:01:44;92690.66;;;8.33;100.00
21828;BME280;11076;47.942;11.804;2023-03-14T08:06:47;92681.59;;;8.51;100.00
21828;BME280;11076;47.942;11.804;2023-03-14T08:11:49;92689.78;;;8.67;100.00
21828;BME280;11076;47.942;11.804;2023-03-14T08:16:52;92700.09;;;8.41;100.00
21828;BME280;11076;47.942;11.804;2023-03-14T08:21:54;92692.50;;;8.33;100.00
21828;BME280;11076;47.942;11.804;2023-03-14T08:26:56;92690.34;;;8.30;100.00
21828;BME280;11076;47.942;11.804;2023-03-14T08:31:59;92701.56;;;8.32;100.00
21828;BME280;11076;47.942;11.804;2023-03-14T08:37:01;92710.03;;;8.29;100.00
21828;BME280;11076;47.942;11.804;2023-03-14T08:42:09;92706.66;;;8.16;100.00
21828;BME280;11076;47.942;11.804;2023-03-14T08:47:11;92707.50;;;8.00;100.00
21828;BME280;11076;47.942;11.804;2023-03-14T08:52:14;92716.75;;;7.97;100.00
21828;BME280;11076;47.942;11.804;2023-03-14T08:57:18;92722.34;;;7.96;100.00
21828;BME280;11076;47.942;11.804;2023-03-14T09:02:20;92732.16;;;7.95;100.00
21828;BME280;11076;47.942;11.804;2023-03-14T09:07:23;92722.50;;;8.06;100.00
21828;BME280;11076;47.942;11.804;2023-03-14T09:12:25;92733.28;;;8.16;100.00
21828;BME280;11076;47.942;11.804;2023-03-14T09:17:28;92727.53;;;8.25;100.00
21828;BME280;11076;47.942;11.804;2023-03-14T09:22:30;92738.84;;;8.32;100.00
21828;BME280;11076;47.942;11.804;2023-03-14T09:27:32;92741.50;;;8.32;100.00
21828;BME280;11076;47.942;11.804;2023-03-14T09:32:35;92745.28;;;8.36;100.00
21828;BME280;11076;47.942;11.804;2023-03-14T09:37:37;92743.03;;;8.45;100.00
21828;BME280;11076;47.942;11.804;2023-03-14T10:04:45;92708.84;;;8.81;100.00
21828;BME280;11076;47.942;11.804;2023-03-14T10:09:50;92691.72;;;8.99;100.00
21828;BME280;11076;47.942;11.804;2023-03-14T10:14:53;92702.63;;;9.19;100.00
21828;BME280;11076;47.942;11.804;2023-03-14T10:19:59;92699.22;;;9.56;100.00
21828;BME280;11076;47.942;11.804;2023-03-14T10:25:26;92691.06;;;10.05;100.00
21828;BME280;11076;47.942;11.804;2023-03-14T10:30:43;92696.22;;;10.60;100.00
21828;BME280;11076;47.942;11.804;2023-03-14T10:36:01;92693.97;;;10.99;97.73
21828;BME280;11076;47.942;11.804;2023-03-14T10:41:17;92705.88;;;11.54;94.71
21828;BME280;11076;47.942;11.804;2023-03-14T10:46:20;92699.25;;;11.98;91.26
21828;BME280;11076;47.942;11.804;2023-03-14T10:51:41;92701.09;;;12.23;81.50
21828;BME280;11076;47.942;11.804;2023-03-14T10:56:43;92710.19;;;12.43;81.60
21828;BME280;11076;47.942;11.804;2023-03-14T11:06:56;92711.94;;;12.93;79.82
21828;BME280;11076;47.942;11.804;2023-03-14T11:17:58;92698.59;;;13.38;75.91
21828;BME280;11076;47.942;11.804;2023-03-14T11:23:22;92685.81;;;13.64;74.12
21828;BME280;11076;47.942;11.804;2023-03-14T11:28:38;92693.81;;;13.75;70.15
21828;BME280;11076;47.942;11.804;2023-03-14T11:34:20;92674.03;;;14.29;66.63
21828;BME280;11076;47.942;11.804;2023-03-14T11:39:31;92680.66;;;14.66;66.74
21828;BME280;11076;47.942;11.804;2023-03-14T11:44:37;92656.97;;;14.15;63.61
21828;BME280;11076;47.942;11.804;2023-03-14T11:49:51;92664.50;;;13.78;65.95
21828;BME280;11076;47.942;11.804;2023-03-14T11:55:20;92656.16;;;13.85;64.74
21828;BME280;11076;47.942;11.804;2023-03-14T12:00:24;92649.13;;;13.89;63.56
21828;BME280;11076;47.942;11.804;2023-03-14T12:05:39;92651.94;;;14.32;63.36
21828;BME280;11076;47.942;11.804;2023-03-14T12:10:49;92653.88;;;14.26;59.65
21828;BME280;11076;47.942;11.804;2023-03-14T12:15:59;92642.75;;;14.38;61.31
21828;BME280;11076;47.942;11.804;2023-03-14T12:21:07;92643.47;;;14.20;59.68
21828;BME280;11076;47.942;11.804;2023-03-14T12:52:40;92637.84;;;13.03;56.22
21828;BME280;11076;47.942;11.804;2023-03-14T12:57:59;92647.38;;;12.74;60.39
21828;BME280;11076;47.942;11.804;2023-03-14T13:08:36;92675.56;;;12.62;64.26
21828;BME280;11076;47.942;11.804;2023-03-14T13:13:45;92668.72;;;12.04;68.50
21828;BME280;11076;47.942;11.804;2023-03-14T13:18:51;92689.59;;;11.82;69.47
21828;BME280;11076;47.942;11.804;2023-03-14T13:24:07;92677.53;;;12.05;71.42
21828;BME280;11076;47.942;11.804;2023-03-14T13:34:31;92693.34;;;12.01;67.24
21828;BME280;11076;47.942;11.804;2023-03-14T13:39:34;92687.69;;;11.67;66.77
21828;BME280;11076;47.942;11.804;2023-03-14T13:44:38;92708.78;;;11.32;66.95
21828;BME280;11076;47.942;11.804;2023-03-14T13:49:43;92705.28;;;11.17;69.03
21828;BME280;11076;47.942;11.804;2023-03-14T13:54:45;92744.50;;;10.90;69.50
21828;BME280;11076;47.942;11.804;2023-03-14T14:00:05;92742.06;;;10.41;73.31
21828;BME280;11076;47.942;11.804;2023-03-14T14:05:10;92774.38;;;10.07;78.00
21828;BME280;11076;47.942;11.804;2023-03-14T14:10:13;92775.75;;;9.83;82.81
21828;BME280;11076;47.942;11.804;2023-03-14T14:15:21;92786.38;;;9.23;86.62
21828;BME280;11076;47.942;11.804;2023-03-14T14:20:35;92792.31;;;8.86;90.39
21828;BME280;11076;47.942;11.804;2023-03-14T14:25:39;92801.06;;;8.82;93.13
21828;BME280;11076;47.942;11.804;2023-03-14T14:30:42;92804.28;;;8.84;91.68
21828;BME280;11076;47.942;11.804;2023-03-14T14:36:04;92840.03;;;8.66;92.66
21828;BME280;11076;47.942;11.804;2023-03-14T14:41:11;92857.16;;;8.07;95.31
21828;BME280;11076;47.942;11.804;2023-03-14T14:46:17;92881.59;;;7.59;99.05
21828;BME280;11076;47.942;11.804;2023-03-14T14:51:25;92892.47;;;7.05;99.08
21828;BME280;11076;47.942;11.804;2023-03-14T14:56:28;92920.22;;;6.73;100.00
21828;BME280;11076;47.942;11.804;2023-03-14T15:01:34;92918.03;;;6.59;100.00
21828;BME280;11076;47.942;11.804;2023-03-14T15:06:38;92917.44;;;6.45;100.00
21828;BME280;11076;47.942;11.804;2023-03-14T15:11:40;92923.41;;;6.40;100.00
21828;BME280;11076;47.942;11.804;2023-03-14T15:16:42;92933.78;;;6.30;100.00
21828;BME280;11076;47.942;11.804;2023-03-14T15:21:45;92945.22;;;6.42;100.00
21828;BME280;11076;47.942;11.804;2023-03-14T15:26:47;92947.34;;;6.64;100.00
21828;BME280;11076;47.942;11.804;2023-03-14T15:31:50;92956.59;;;6.96;100.00
21828;BME280;11076;47.942;11.804;2023-03-14T15:36:52;92976.56;;;6.99;98.17
21828;BME280;11076;47.942;11.804;2023-03-14T15:41:54;92983.75;;;6.99;98.41
21828;BME280;11076;47.942;11.804;2023-03-14T15:46:57;92971.56;;;6.55;99.87
21828;BME280;11076;47.942;11.804;2023-03-14T15:51:59;92980.19;;;6.39;94.67
21828;BME280;11076;47.942;11.804;2023-03-14T15:57:01;92991.41;;;6.41;89.28
21828;BME280;11076;47.942;11.804;2023-03-14T16:02:04;93016.63;;;6.32;88.19
21828;BME280;11076;47.942;11.804;2023-03-14T16:07:06;93031.44;;;6.09;84.81
21828;BME280;11076;47.942;11.804;2023-03-14T16:12:09;93046.34;;;5.73;86.71
21828;BME280;11076;47.942;11.804;2023-03-14T16:17:11;93066.50;;;5.37;87.99
21828;BME280;11076;47.942;11.804;2023-03-14T16:22:13;93080.28;;;5.21;88.01
21828;BME280;11076;47.942;11.804;2023-03-14T16:27:16;93105.50;;;5.05;89.26
21828;BME280;11076;47.942;11.804;2023-03-14T16:32:18;93119.88;;;4.91;89.43
21828;BME280;11076;47.942;11.804;2023-03-14T16:37:23;93140.25;;;4.90;89.46
21828;BME280;11076;47.942;11.804;2023-03-14T16:42:25;93170.88;;;4.80;90.45
21828;BME280;11076;47.942;11.804;2023-03-14T16:47:28;93179.78;;;4.85;91.08
21828;BME280;11076;47.942;11.804;2023-03-14T16:52:32;93178.94;;;4.91;91.80
21828;BME280;11076;47.942;11.804;2023-03-14T16:57:34;93199.31;;;4.97;91.50
21828;BME280;11076;47.942;11.804;2023-03-14T17:02:37;93203.31;;;5.07;92.18
21828;BME280;11076;47.942;11.804;2023-03-14T17:07:39;93225.69;;;5.11;89.40
21828;BME280;11076;47.942;11.804;2023-03-14T17:12:45;93238.69;;;5.19;86.86
21828;BME280;11076;47.942;11.804;2023-03-14T17:17:47;93231.78;;;5.18;85.67
21828;BME280;11076;47.942;11.804;2023-03-14T17:22:53;93265.22;;;5.12;87.24
21828;BME280;11076;47.942;11.804;2023-03-14T17:27:56;93304.31;;;5.17;87.24
21828;BME280;11076;47.942;11.804;2023-03-14T17:32:59;93320.25;;;5.10;88.57
21828;BME280;11076;47.942;11.804;2023-03-14T17:38:01;93339.84;;;5.03;88.76
21828;BME280;11076;47.942;11.804;2023-03-14T17:43:04;93350.09;;;4.92;89.23
21828;BME280;11076;47.942;11.804;2023-03-14T17:48:07;93367.63;;;4.87;89.87
21828;BME280;11076;47.942;11.804;2023-03-14T17:53:09;93391.72;;;4.58;90.17
21828;BME280;11076;47.942;11.804;2023-03-14T17:58:11;93393.19;;;4.34;91.09
21828;BME280;11076;47.942;11.804;2023-03-14T18:03:14;93396.63;;;4.22;91.37
21828;BME280;11076;47.942;11.804;2023-03-14T18:08:16;93412.31;;;4.03;91.05
21828;BME280;11076;47.942;11.804;2023-03-14T18:13:18;93425.50;;;3.90;91.12
21828;BME280;11076;47.942;11.804;2023-03-14T18:18:21;93427.53;;;3.88;90.30
21828;BME280;11076;47.942;11.804;2023-03-14T18:23:24;93424.50;;;3.84;89.81
21828;BME280;11076;47.942;11.804;2023-03-14T18:28:26;93428.13;;;3.76;88.57
21828;BME280;11076;47.942;11.804;2023-03-14T18:33:30;93447.84;;;3.67;87.98
21828;BME280;11076;47.942;11.804;2023-03-14T18:38:39;93450.28;;;3.62;87.13
21828;BME280;11076;47.942;11.804;2023-03-14T18:43:44;93451.84;;;3.50;87.53
21828;BME280;11076;47.942;11.804;2023-03-14T18:48:47;93461.19;;;3.46;85.95
21828;BME280;11076;47.942;11.804;2023-03-14T18:53:57;93458.72;;;3.44;85.82
21828;BME280;11076;47.942;11.804;2023-03-14T18:59:12;93470.31;;;3.43;86.02
21828;BME280;11076;47.942;11.804;2023-03-14T19:04:15;93465.22;;;3.42;86.05
21828;BME280;11076;47.942;11.804;2023-03-14T19:09:17;93473.94;;;3.35;86.73
21828;BME280;11076;47.942;11.804;2023-03-14T19:14:20;93477.34;;;3.23;87.01
21828;BME280;11076;47.942;11.804;2023-03-14T19:19:22;93472.88;;;3.23;87.86
21828;BME280;11076;47.942;11.804;2023-03-14T19:24:24;93479.88;;;3.44;88.76
21828;BME280;11076;47.942;11.804;2023-03-14T19:29:27;93483.59;;;3.56;88.96
21828;BME280;11076;47.942;11.804;2023-03-14T19:34:29;93489.28;;;3.60;89.05
21828;BME280;11076;47.942;11.804;2023-03-14T19:39:32;93484.59;;;3.55;90.10
21828;BME280;11076;47.942;11.804;2023-03-14T19:44:35;93489.44;;;3.52;90.44
21828;BME280;11076;47.942;11.804;2023-03-14T19:49:37;93487.66;;;3.52;90.76
21828;BME280;11076;47.942;11.804;2023-03-14T19:54:39;93500.94;;;3.72;90.86
21828;BME280;11076;47.942;11.804;2023-03-14T19:59:45;93501.38;;;3.83;91.15
21828;BME280;11076;47.942;11.804;2023-03-14T20:04:49;93499.56;;;3.96;91.04
21828;BME280;11076;47.942;11.804;2023-03-14T20:09:55;93498.34;;;4.06;90.65
21828;BME280;11076;47.942;11.804;2023-03-14T20:14:58;93498.38;;;4.12;90.10
21828;BME280;11076;47.942;11.804;2023-03-14T20:20:01;93503.47;;;4.21;89.64
21828;BME280;11076;47.942;11.804;2023-03-14T20:25:05;93508.97;;;4.26;89.49
21828;BME280;11076;47.942;11.804;2023-03-14T20:30:11;93501.25;;;4.31;88.59
21828;BME280;11076;47.942;11.804;2023-03-14T20:35:14;93500.03;;;4.33;88.26
21828;BME280;11076;47.942;11.804;2023-03-14T20:40:25;93517.97;;;4.38;88.19
21828;BME280;11076;47.942;11.804;2023-03-14T20:45:29;93505.75;;;4.37;87.00
21828;BME280;11076;47.942;11.804;2023-03-14T20:50:32;93513.88;;;4.29;87.25
21828;BME280;11076;47.942;11.804;2023-03-14T20:55:34;93521.19;;;4.27;87.64
21828;BME280;11076;47.942;11.804;2023-03-14T21:00:38;93530.16;;;4.32;88.19
21828;BME280;11076;47.942;11.804;2023-03-14T21:05:41;93546.84;;;4.33;91.57
21828;BME280;11076;47.942;11.804;2023-03-14T21:10:46;93552.97;;;3.72;99.90
21828;BME280;11076;47.942;11.804;2023-03-14T21:15:50;93547.31;;;3.33;100.00
21828;BME280;11076;47.942;11.804;2023-03-14T21:20:53;93550.03;;;3.12;100.00
21828;BME280;11076;47.942;11.804;2023-03-14T21:25:56;93570.06;;;2.99;100.00
21828;BME280;11076;47.942;11.804;2023-03-14T21:31:08;93582.22;;;2.72;100.00
21828;BME280;11076;47.942;11.804;2023-03-14T21:36:13;93585.31;;;2.54;100.00
21828;BME280;11076;47.942;11.804;2023-03-14T21:41:15;93585.72;;;2.51;100.00
21828;BME280;11076;47.942;11.804;2023-03-14T21:46:18;93594.00;;;2.48;100.00
21828;BME280;11076;47.942;11.804;2023-03-14T21:51:20;93598.59;;;2.39;100.00
21828;BME280;11076;47.942;11.804;2023-03-14T21:56:23;93609.94;;;2.40;100.00
21828;BME280;11076;47.942;11.804;2023-03-14T22:01:28;93620.94;;;2.44;100.00
21828;BME280;11076;47.942;11.804;2023-03-14T22:06:31;93622.56;;;2.45;100.00
21828;BME280;11076;47.942;11.804;2023-03-14T22:11:33;93635.97;;;2.43;100.00
21828;BME280;11076;47.942;11.804;2023-03-14T22:16:35;93642.41;;;2.41;100.00
21828;BME280;11076;47.942;11.804;2023-03-14T22:21:38;93648.72;;;2.25;100.00
21828;BME280;11076;47.942;11.804;2023-03-14T22:26:40;93652.50;;;2.15;100.00
21828;BME280;11076;47.942;11.804;2023-03-14T22:31:43;93638.78;;;2.05;100.00
21828;BME280;11076;47.942;11.804;2023-03-14T22:36:45;93648.31;;;2.06;100.00
21828;BME280;11076;47.942;11.804;2023-03-14T22:41:47;93649.22;;;2.13;100.00
21828;BME280;11076;47.942;11.804;2023-03-14T22:46:50;93649.28;;;2.20;100.00
21828;BME280;11076;47.942;11.804;2023-03-14T22:51:52;93651.75;;;2.22;100.00
21828;BME280;11076;47.942;11.804;2023-03-14T22:56:54;93657.28;;;2.27;100.00
21828;BME280;11076;47.942;11.804;2023-03-14T23:01:57;93650.66;;;2.31;100.00
21828;BME280;11076;47.942;11.804;2023-03-14T23:07:00;93651.41;;;2.46;100.00
21828;BME280;11076;47.942;11.804;2023-03-14T23:12:03;93640.09;;;2.52;100.00
21828;BME280;11076;47.942;11.804;2023-03-14T23:17:05;93640.31;;;2.51;100.00
21828;BME280;11076;47.942;11.804;2023-03-14T23:22:08;93645.75;;;2.49;100.00
21828;BME280;11076;47.942;11.804;2023-03-14T23:27:10;93638.28;;;2.31;100.00
21828;BME280;11076;47.942;11.804;2023-03-14T23:32:13;93629.69;;;1.93;100.00
21828;BME280;11076;47.942;11.804;2023-03-14T23:37:18;93626.56;;;1.68;100.00
21828;BME280;11076;47.942;11.804;2023-03-14T23:42:21;93636.13;;;1.54;100.00
21828;BME280;11076;47.942;11.804;2023-03-14T23:47:23;93637.91;;;1.38;100.00
21828;BME280;11076;47.942;11.804;2023-03-14T23:52:26;93641.66;;;1.74;100.00
21828;BME280;11076;47.942;11.804;2023-03-14T23:57:28;93642.81;;;2.01;100.00
